sensor_id;sensor_type;location;lat;lon;timestamp;temperature;humidity
23081;DHT22;11708;50.570;8.532;2023-04-25T00:02:13;9.30;99.90
23081;DHT22;11708;50.570;8.532;2023-04-25T00:04:40;9.20;99.90
23081;DHT22;11708;50.570;8.532;2023-04-25T00:07:05;9.20;99.90
23081;DHT22;11708;50.570;8.532;2023-04-25T00:09:31;9.20;99.90
23081;DHT22;11708;50.570;8.532;2023-04-25T00:11:58;9.20;99.90
23081;DHT22;11708;50.570;8.532;2023-04-25T00:14:24;9.30;99.90
23081;DHT22;11708;50.570;8.532;2023-04-25T00:16:50;9.30;99.90
23081;DHT22;11708;50.570;8.532;2023-04-25T00:19:17;9.20;99.90
23081;DHT22;11708;50.570;8.532;2023-04-25T00:21:42;9.20;99.90
23081;DHT22;11708;50.570;8.532;2023-04-25T00:24:11;9.20;99.90
23081;DHT22;11708;50.570;8.532;2023-04-25T00:26:37;9.20;99.90
23081;DHT22;11708;50.570;8.532;2023-04-25T00:29:03;9.10;99.90
23081;DHT22;11708;50.570;8.532;2023-04-25T00:31:28;9.20;99.90
23081;DHT22;11708;50.570;8.532;2023-04-25T00:33:54;9.20;99.90
23081;DHT22;11708;50.570;8.532;2023-04-25T00:36:20;9.20;99.90
23081;DHT22;11708;50.570;8.532;2023-04-25T00:38:46;9.10;99.90
23081;DHT22;11708;50.570;8.532;2023-04-25T00:41:11;9.10;99.90
23081;DHT22;11708;50.570;8.532;2023-04-25T00:43:37;9.10;99.90
23081;DHT22;11708;50.570;8.532;2023-04-25T00:46:03;9.10;99.90
23081;DHT22;11708;50.570;8.532;2023-04-25T00:48:29;9.10;99.90
23081;DHT22;11708;50.570;8.532;2023-04-25T00:50:57;9.10;99.90
23081;DHT22;11708;50.570;8.532;2023-04-25T00:53:24;9.10;99.90
23081;DHT22;11708;50.570;8.532;2023-04-25T00:55:51;9.00;99.90
23081;DHT22;11708;50.570;8.532;2023-04-25T00:58:18;9.00;99.90
23081;DHT22;11708;50.570;8.532;2023-04-25T01:00:47;9.00;99.90
23081;DHT22;11708;50.570;8.532;2023-04-25T01:03:14;8.90;99.90
23081;DHT22;11708;50.570;8.532;2023-04-25T01:05:42;8.80;99.90
23081;DHT22;11708;50.570;8.532;2023-04-25T01:08:08;8.80;99.90
23081;DHT22;11708;50.570;8.532;2023-04-25T01:10:33;8.80;99.90
23081;DHT22;11708;50.570;8.532;2023-04-25T01:12:59;8.80;99.90
23081;DHT22;11708;50.570;8.532;2023-04-25T01:15:25;8.70;99.90
23081;DHT22;11708;50.570;8.532;2023-04-25T01:17:50;8.60;99.90
23081;DHT22;11708;50.570;8.532;2023-04-25T01:20:16;8.60;99.90
23081;DHT22;11708;50.570;8.532;2023-04-25T01:22:42;8.50;99.90
23081;DHT22;11708;50.570;8.532;2023-04-25T01:25:08;8.20;99.90
23081;DHT22;11708;50.570;8.532;2023-04-25T01:27:36;8.50;99.90
23081;DHT22;11708;50.570;8.532;2023-04-25T01:30:02;8.40;99.90
23081;DHT22;11708;50.570;8.532;2023-04-25T01:32:29;8.40;99.90
23081;DHT22;11708;50.570;8.532;2023-04-25T01:35:06;8.40;99.90
23081;DHT22;11708;50.570;8.532;2023-04-25T01:37:39;8.30;99.90
23081;DHT22;11708;50.570;8.532;2023-04-25T01:40:05;8.30;99.90
23081;DHT22;11708;50.570;8.532;2023-04-25T01:42:32;8.30;99.90
23081;DHT22;11708;50.570;8.532;2023-04-25T01:44:58;8.00;99.90
23081;DHT22;11708;50.570;8.532;2023-04-25T01:47:24;8.20;99.90
23081;DHT22;11708;50.570;8.532;2023-04-25T01:49:49;8.20;99.90
23081;DHT22;11708;50.570;8.532;2023-04-25T01:52:15;8.10;99.90
23081;DHT22;11708;50.570;8.532;2023-04-25T01:54:41;8.10;99.90
23081;DHT22;11708;50.570;8.532;2023-04-25T01:57:09;8.10;99.90
23081;DHT22;11708;50.570;8.532;2023-04-25T01:59:36;8.10;99.90
23081;DHT22;11708;50.570;8.532;2023-04-25T02:02:01;8.10;99.90
23081;DHT22;11708;50.570;8.532;2023-04-25T02:04:29;8.10;99.90
23081;DHT22;11708;50.570;8.532;2023-04-25T02:06:55;8.00;99.90
23081;DHT22;11708;50.570;8.532;2023-04-25T02:09:20;8.00;99.90
23081;DHT22;11708;50.570;8.532;2023-04-25T02:11:46;8.00;99.90
23081;DHT22;11708;50.570;8.532;2023-04-25T02:14:11;7.90;99.90
23081;DHT22;11708;50.570;8.532;2023-04-25T02:16:37;7.90;99.90
23081;DHT22;11708;50.570;8.532;2023-04-25T02:19:04;7.90;99.90
23081;DHT22;11708;50.570;8.532;2023-04-25T02:21:30;7.90;99.90
23081;DHT22;11708;50.570;8.532;2023-04-25T02:23:56;7.80;99.90
23081;DHT22;11708;50.570;8.532;2023-04-25T02:26:22;7.80;99.90
23081;DHT22;11708;50.570;8.532;2023-04-25T02:28:49;7.80;99.90
23081;DHT22;11708;50.570;8.532;2023-04-25T02:31:15;7.80;99.90
23081;DHT22;11708;50.570;8.532;2023-04-25T02:33:40;7.80;99.90
23081;DHT22;11708;50.570;8.532;2023-04-25T02:36:06;7.70;99.90
23081;DHT22;11708;50.570;8.532;2023-04-25T02:38:32;7.70;99.90
23081;DHT22;11708;50.570;8.532;2023-04-25T02:40:58;7.60;99.90
23081;DHT22;11708;50.570;8.532;2023-04-25T02:43:23;7.60;99.90
23081;DHT22;11708;50.570;8.532;2023-04-25T02:45:49;7.60;99.90
23081;DHT22;11708;50.570;8.532;2023-04-25T02:48:14;7.60;99.90
23081;DHT22;11708;50.570;8.532;2023-04-25T02:50:40;7.50;99.90
23081;DHT22;11708;50.570;8.532;2023-04-25T02:53:05;7.50;99.90
23081;DHT22;11708;50.570;8.532;2023-04-25T02:55:31;7.40;99.90
23081;DHT22;11708;50.570;8.532;2023-04-25T02:57:56;7.30;99.90
23081;DHT22;11708;50.570;8.532;2023-04-25T03:00:22;7.30;99.90
23081;DHT22;11708;50.570;8.532;2023-04-25T03:02:48;7.30;99.90
23081;DHT22;11708;50.570;8.532;2023-04-25T03:05:13;7.30;99.90
23081;DHT22;11708;50.570;8.532;2023-04-25T03:07:39;7.20;99.90
23081;DHT22;11708;50.570;8.532;2023-04-25T03:10:06;7.10;99.90
23081;DHT22;11708;50.570;8.532;2023-04-25T03:12:32;7.10;99.90
23081;DHT22;11708;50.570;8.532;2023-04-25T03:14:57;7.00;99.90
23081;DHT22;11708;50.570;8.532;2023-04-25T03:17:23;6.90;99.90
23081;DHT22;11708;50.570;8.532;2023-04-25T03:19:48;6.90;99.90
23081;DHT22;11708;50.570;8.532;2023-04-25T03:22:14;6.90;99.90
23081;DHT22;11708;50.570;8.532;2023-04-25T03:24:40;6.80;99.90
23081;DHT22;11708;50.570;8.532;2023-04-25T03:27:05;6.80;99.90
23081;DHT22;11708;50.570;8.532;2023-04-25T03:29:31;6.70;99.90
23081;DHT22;11708;50.570;8.532;2023-04-25T03:31:56;6.70;99.90
23081;DHT22;11708;50.570;8.532;2023-04-25T03:34:22;6.70;99.90
23081;DHT22;11708;50.570;8.532;2023-04-25T03:36:49;6.70;99.90
23081;DHT22;11708;50.570;8.532;2023-04-25T03:39:14;6.60;99.90
23081;DHT22;11708;50.570;8.532;2023-04-25T03:41:40;6.70;99.90
23081;DHT22;11708;50.570;8.532;2023-04-25T03:44:05;6.60;99.90
23081;DHT22;11708;50.570;8.532;2023-04-25T03:46:31;6.60;99.90
23081;DHT22;11708;50.570;8.532;2023-04-25T03:48:56;6.60;99.90
23081;DHT22;11708;50.570;8.532;2023-04-25T03:51:22;6.60;99.90
23081;DHT22;11708;50.570;8.532;2023-04-25T03:53:48;6.60;99.90
23081;DHT22;11708;50.570;8.532;2023-04-25T03:56:13;6.60;99.90
23081;DHT22;11708;50.570;8.532;2023-04-25T03:58:39;6.60;99.90
23081;DHT22;11708;50.570;8.532;2023-04-25T04:01:04;6.60;99.90
23081;DHT22;11708;50.570;8.532;2023-04-25T04:03:33;6.60;99.90
23081;DHT22;11708;50.570;8.532;2023-04-25T04:06:00;6.60;99.90
23081;DHT22;11708;50.570;8.532;2023-04-25T04:08:26;6.60;99.90
23081;DHT22;11708;50.570;8.532;2023-04-25T04:10:51;6.60;99.90
23081;DHT22;11708;50.570;8.532;2023-04-25T04:13:17;6.70;99.90
23081;DHT22;11708;50.570;8.532;2023-04-25T04:15:42;6.60;99.90
23081;DHT22;11708;50.570;8.532;2023-04-25T04:18:08;6.60;99.90
23081;DHT22;11708;50.570;8.532;2023-04-25T04:20:33;6.60;99.90
23081;DHT22;11708;50.570;8.532;2023-04-25T04:22:59;6.60;99.90
23081;DHT22;11708;50.570;8.532;2023-04-25T04:25:24;6.70;99.90
23081;DHT22;11708;50.570;8.532;2023-04-25T04:27:51;6.60;99.90
23081;DHT22;11708;50.570;8.532;2023-04-25T04:30:23;6.60;99.90
23081;DHT22;11708;50.570;8.532;2023-04-25T04:32:55;6.60;99.90
23081;DHT22;11708;50.570;8.532;2023-04-25T04:35:21;6.60;99.90
23081;DHT22;11708;50.570;8.532;2023-04-25T04:37:47;6.50;99.90
23081;DHT22;11708;50.570;8.532;2023-04-25T04:40:14;6.50;99.90
23081;DHT22;11708;50.570;8.532;2023-04-25T04:42:41;6.50;99.90
23081;DHT22;11708;50.570;8.532;2023-04-25T04:45:07;6.30;99.90
23081;DHT22;11708;50.570;8.532;2023-04-25T04:47:33;6.50;99.90
23081;DHT22;11708;50.570;8.532;2023-04-25T04:49:59;6.50;99.90
23081;DHT22;11708;50.570;8.532;2023-04-25T04:52:24;6.50;99.90
23081;DHT22;11708;50.570;8.532;2023-04-25T04:54:50;6.50;99.90
23081;DHT22;11708;50.570;8.532;2023-04-25T04:57:16;6.50;99.90
23081;DHT22;11708;50.570;8.532;2023-04-25T04:59:42;6.50;99.90
23081;DHT22;11708;50.570;8.532;2023-04-25T05:02:07;6.50;99.90
23081;DHT22;11708;50.570;8.532;2023-04-25T05:04:34;6.50;99.90
23081;DHT22;11708;50.570;8.532;2023-04-25T05:07:00;6.50;99.90
23081;DHT22;11708;50.570;8.532;2023-04-25T05:09:26;6.50;99.90
23081;DHT22;11708;50.570;8.532;2023-04-25T05:11:52;6.50;99.90
23081;DHT22;11708;50.570;8.532;2023-04-25T05:14:18;6.50;99.90
23081;DHT22;11708;50.570;8.532;2023-04-25T05:16:46;6.50;99.90
23081;DHT22;11708;50.570;8.532;2023-04-25T05:19:12;6.50;99.90
23081;DHT22;11708;50.570;8.532;2023-04-25T05:21:37;6.50;99.90
23081;DHT22;11708;50.570;8.532;2023-04-25T05:24:03;6.60;99.90
23081;DHT22;11708;50.570;8.532;2023-04-25T05:26:28;6.60;99.90
23081;DHT22;11708;50.570;8.532;2023-04-25T05:28:59;6.60;99.90
23081;DHT22;11708;50.570;8.532;2023-04-25T05:31:25;6.60;99.90
23081;DHT22;11708;50.570;8.532;2023-04-25T05:33:51;6.60;99.90
23081;DHT22;11708;50.570;8.532;2023-04-25T05:36:18;6.70;99.90
23081;DHT22;11708;50.570;8.532;2023-04-25T05:38:44;6.70;99.90
23081;DHT22;11708;50.570;8.532;2023-04-25T05:41:09;6.70;99.90
23081;DHT22;11708;50.570;8.532;2023-04-25T05:43:35;6.80;99.90
23081;DHT22;11708;50.570;8.532;2023-04-25T05:46:01;6.80;99.90
23081;DHT22;11708;50.570;8.532;2023-04-25T05:48:26;6.80;99.90
23081;DHT22;11708;50.570;8.532;2023-04-25T05:50:52;6.90;99.90
23081;DHT22;11708;50.570;8.532;2023-04-25T05:53:18;6.90;99.90
23081;DHT22;11708;50.570;8.532;2023-04-25T05:55:44;6.90;99.90
23081;DHT22;11708;50.570;8.532;2023-04-25T05:58:09;7.00;99.90
23081;DHT22;11708;50.570;8.532;2023-04-25T06:00:35;7.00;99.90
23081;DHT22;11708;50.570;8.532;2023-04-25T06:03:01;7.10;99.90
23081;DHT22;11708;50.570;8.532;2023-04-25T06:05:26;7.10;99.90
23081;DHT22;11708;50.570;8.532;2023-04-25T06:07:52;7.20;99.90
23081;DHT22;11708;50.570;8.532;2023-04-25T06:10:17;7.20;99.90
23081;DHT22;11708;50.570;8.532;2023-04-25T06:12:43;7.20;99.90
23081;DHT22;11708;50.570;8.532;2023-04-25T06:15:09;7.40;99.90
23081;DHT22;11708;50.570;8.532;2023-04-25T06:17:35;7.30;99.90
23081;DHT22;11708;50.570;8.532;2023-04-25T06:20:01;7.40;99.90
23081;DHT22;11708;50.570;8.532;2023-04-25T06:22:27;7.40;99.90
23081;DHT22;11708;50.570;8.532;2023-04-25T06:24:52;7.50;99.90
23081;DHT22;11708;50.570;8.532;2023-04-25T06:27:18;7.60;99.90
23081;DHT22;11708;50.570;8.532;2023-04-25T06:29:44;7.60;99.90
23081;DHT22;11708;50.570;8.532;2023-04-25T06:32:09;7.70;99.90
23081;DHT22;11708;50.570;8.532;2023-04-25T06:34:35;7.80;99.90
23081;DHT22;11708;50.570;8.532;2023-04-25T06:37:00;7.80;99.90
23081;DHT22;11708;50.570;8.532;2023-04-25T06:39:26;7.90;99.90
23081;DHT22;11708;50.570;8.532;2023-04-25T06:41:51;7.90;99.90
23081;DHT22;11708;50.570;8.532;2023-04-25T06:44:17;8.00;99.90
23081;DHT22;11708;50.570;8.532;2023-04-25T06:46:43;7.90;99.90
23081;DHT22;11708;50.570;8.532;2023-04-25T06:49:08;8.00;99.90
23081;DHT22;11708;50.570;8.532;2023-04-25T06:51:34;8.00;99.90
23081;DHT22;11708;50.570;8.532;2023-04-25T06:53:59;8.10;99.90
23081;DHT22;11708;50.570;8.532;2023-04-25T06:56:25;8.10;99.90
23081;DHT22;11708;50.570;8.532;2023-04-25T06:58:51;8.10;99.90
23081;DHT22;11708;50.570;8.532;2023-04-25T07:01:16;8.20;99.90
23081;DHT22;11708;50.570;8.532;2023-04-25T07:03:42;8.30;99.90
23081;DHT22;11708;50.570;8.532;2023-04-25T07:06:07;8.40;99.90
23081;DHT22;11708;50.570;8.532;2023-04-25T07:08:33;8.40;99.90
23081;DHT22;11708;50.570;8.532;2023-04-25T07:10:58;8.50;99.90
23081;DHT22;11708;50.570;8.532;2023-04-25T07:13:24;8.70;99.90
23081;DHT22;11708;50.570;8.532;2023-04-25T07:15:50;8.70;99.90
23081;DHT22;11708;50.570;8.532;2023-04-25T07:18:15;8.80;99.90
23081;DHT22;11708;50.570;8.532;2023-04-25T07:20:41;8.80;99.90
23081;DHT22;11708;50.570;8.532;2023-04-25T07:23:06;8.90;99.90
23081;DHT22;11708;50.570;8.532;2023-04-25T07:25:32;8.90;99.90
23081;DHT22;11708;50.570;8.532;2023-04-25T07:27:58;9.00;99.90
23081;DHT22;11708;50.570;8.532;2023-04-25T07:30:24;9.00;99.90
23081;DHT22;11708;50.570;8.532;2023-04-25T07:32:50;9.10;99.90
23081;DHT22;11708;50.570;8.532;2023-04-25T07:35:16;9.10;99.90
23081;DHT22;11708;50.570;8.532;2023-04-25T07:37:43;9.20;99.90
23081;DHT22;11708;50.570;8.532;2023-04-25T07:40:09;9.20;99.90
23081;DHT22;11708;50.570;8.532;2023-04-25T07:42:35;9.30;99.90
23081;DHT22;11708;50.570;8.532;2023-04-25T07:45:01;9.50;99.90
23081;DHT22;11708;50.570;8.532;2023-04-25T07:47:28;9.30;99.90
23081;DHT22;11708;50.570;8.532;2023-04-25T07:49:53;9.40;99.90
23081;DHT22;11708;50.570;8.532;2023-04-25T07:52:19;9.40;99.90
23081;DHT22;11708;50.570;8.532;2023-04-25T07:54:46;9.40;99.90
23081;DHT22;11708;50.570;8.532;2023-04-25T07:57:12;9.40;99.90
23081;DHT22;11708;50.570;8.532;2023-04-25T07:59:39;9.30;99.90
23081;DHT22;11708;50.570;8.532;2023-04-25T08:02:05;9.40;99.90
23081;DHT22;11708;50.570;8.532;2023-04-25T08:04:31;9.30;99.90
23081;DHT22;11708;50.570;8.532;2023-04-25T08:06:56;9.40;99.90
23081;DHT22;11708;50.570;8.532;2023-04-25T08:09:22;9.40;99.90
23081;DHT22;11708;50.570;8.532;2023-04-25T08:11:48;9.40;99.90
23081;DHT22;11708;50.570;8.532;2023-04-25T08:14:13;9.40;99.90
23081;DHT22;11708;50.570;8.532;2023-04-25T08:16:39;9.40;99.90
23081;DHT22;11708;50.570;8.532;2023-04-25T08:19:05;9.50;99.90
23081;DHT22;11708;50.570;8.532;2023-04-25T08:21:31;9.60;99.90
23081;DHT22;11708;50.570;8.532;2023-04-25T08:23:57;9.70;99.90
23081;DHT22;11708;50.570;8.532;2023-04-25T08:26:24;9.90;99.90
23081;DHT22;11708;50.570;8.532;2023-04-25T08:28:50;10.00;99.90
23081;DHT22;11708;50.570;8.532;2023-04-25T08:31:16;10.20;99.90
23081;DHT22;11708;50.570;8.532;2023-04-25T08:33:42;10.20;99.90
23081;DHT22;11708;50.570;8.532;2023-04-25T08:36:07;10.30;99.90
23081;DHT22;11708;50.570;8.532;2023-04-25T08:38:33;10.40;99.90
23081;DHT22;11708;50.570;8.532;2023-04-25T08:41:00;10.50;99.90
23081;DHT22;11708;50.570;8.532;2023-04-25T08:43:29;10.40;99.90
23081;DHT22;11708;50.570;8.532;2023-04-25T08:45:59;10.40;99.90
23081;DHT22;11708;50.570;8.532;2023-04-25T08:48:27;10.30;99.90
23081;DHT22;11708;50.570;8.532;2023-04-25T08:50:55;10.20;99.90
23081;DHT22;11708;50.570;8.532;2023-04-25T08:53:31;10.10;99.90
23081;DHT22;11708;50.570;8.532;2023-04-25T08:55:59;10.00;99.90
23081;DHT22;11708;50.570;8.532;2023-04-25T08:58:25;10.00;99.90
23081;DHT22;11708;50.570;8.532;2023-04-25T09:00:53;10.00;99.90
23081;DHT22;11708;50.570;8.532;2023-04-25T09:03:19;9.90;99.90
23081;DHT22;11708;50.570;8.532;2023-04-25T09:05:45;9.90;99.90
23081;DHT22;11708;50.570;8.532;2023-04-25T09:08:10;9.70;99.90
23081;DHT22;11708;50.570;8.532;2023-04-25T09:10:37;9.70;99.90
23081;DHT22;11708;50.570;8.532;2023-04-25T09:13:24;9.70;99.90
23081;DHT22;11708;50.570;8.532;2023-04-25T09:15:55;9.80;99.90
23081;DHT22;11708;50.570;8.532;2023-04-25T09:18:28;9.90;99.90
23081;DHT22;11708;50.570;8.532;2023-04-25T09:21:15;9.80;99.90
23081;DHT22;11708;50.570;8.532;2023-04-25T09:23:45;9.80;99.90
23081;DHT22;11708;50.570;8.532;2023-04-25T09:26:17;9.90;99.90
23081;DHT22;11708;50.570;8.532;2023-04-25T09:28:43;9.90;99.90
23081;DHT22;11708;50.570;8.532;2023-04-25T09:31:10;9.90;99.90
23081;DHT22;11708;50.570;8.532;2023-04-25T09:33:40;9.90;99.90
23081;DHT22;11708;50.570;8.532;2023-04-25T09:36:10;10.00;99.90
23081;DHT22;11708;50.570;8.532;2023-04-25T09:38:46;10.20;99.90
23081;DHT22;11708;50.570;8.532;2023-04-25T09:41:12;10.30;99.90
23081;DHT22;11708;50.570;8.532;2023-04-25T09:43:38;10.40;99.90
23081;DHT22;11708;50.570;8.532;2023-04-25T09:46:10;10.80;99.90
23081;DHT22;11708;50.570;8.532;2023-04-25T09:48:37;10.70;99.90
23081;DHT22;11708;50.570;8.532;2023-04-25T09:51:09;10.70;99.90
23081;DHT22;11708;50.570;8.532;2023-04-25T09:53:43;10.80;99.90
23081;DHT22;11708;50.570;8.532;2023-04-25T09:56:11;10.90;99.90
23081;DHT22;11708;50.570;8.532;2023-04-25T09:58:40;10.80;99.90
23081;DHT22;11708;50.570;8.532;2023-04-25T10:01:07;10.90;99.90
23081;DHT22;11708;50.570;8.532;2023-04-25T10:03:34;11.00;99.90
23081;DHT22;11708;50.570;8.532;2023-04-25T10:06:02;11.00;99.90
23081;DHT22;11708;50.570;8.532;2023-04-25T10:08:35;11.00;99.90
23081;DHT22;11708;50.570;8.532;2023-04-25T10:11:03;11.00;99.90
23081;DHT22;11708;50.570;8.532;2023-04-25T10:13:33;11.10;99.90
23081;DHT22;11708;50.570;8.532;2023-04-25T10:16:00;11.20;99.90
23081;DHT22;11708;50.570;8.532;2023-04-25T10:18:27;11.10;99.90
23081;DHT22;11708;50.570;8.532;2023-04-25T10:20:58;11.20;99.90
23081;DHT22;11708;50.570;8.532;2023-04-25T10:23:24;11.20;99.90
23081;DHT22;11708;50.570;8.532;2023-04-25T10:25:51;11.20;99.90
23081;DHT22;11708;50.570;8.532;2023-04-25T10:28:17;11.30;99.90
23081;DHT22;11708;50.570;8.532;2023-04-25T10:31:07;11.30;99.90
23081;DHT22;11708;50.570;8.532;2023-04-25T10:33:34;11.40;99.90
23081;DHT22;11708;50.570;8.532;2023-04-25T10:36:10;11.20;99.90
23081;DHT22;11708;50.570;8.532;2023-04-25T10:38:36;11.10;99.90
23081;DHT22;11708;50.570;8.532;2023-04-25T10:41:07;11.10;99.90
23081;DHT22;11708;50.570;8.532;2023-04-25T10:43:41;11.10;99.90
23081;DHT22;11708;50.570;8.532;2023-04-25T10:46:25;11.10;99.90
23081;DHT22;11708;50.570;8.532;2023-04-25T10:48:55;11.00;99.90
23081;DHT22;11708;50.570;8.532;2023-04-25T10:51:22;11.00;99.90
23081;DHT22;11708;50.570;8.532;2023-04-25T10:54:08;10.90;99.90
23081;DHT22;11708;50.570;8.532;2023-04-25T10:56:39;10.90;99.90
23081;DHT22;11708;50.570;8.532;2023-04-25T11:01:37;11.10;99.90
23081;DHT22;11708;50.570;8.532;2023-04-25T11:04:03;11.20;99.90
23081;DHT22;11708;50.570;8.532;2023-04-25T11:09:18;11.50;99.90
23081;DHT22;11708;50.570;8.532;2023-04-25T11:11:57;11.40;99.90
23081;DHT22;11708;50.570;8.532;2023-04-25T11:14:24;11.40;99.90
23081;DHT22;11708;50.570;8.532;2023-04-25T11:16:54;11.40;99.90
23081;DHT22;11708;50.570;8.532;2023-04-25T11:19:21;11.40;99.90
23081;DHT22;11708;50.570;8.532;2023-04-25T11:21:48;11.50;99.90
23081;DHT22;11708;50.570;8.532;2023-04-25T11:24:14;11.50;99.90
23081;DHT22;11708;50.570;8.532;2023-04-25T11:26:46;11.40;99.90
23081;DHT22;11708;50.570;8.532;2023-04-25T11:29:13;11.20;99.90
23081;DHT22;11708;50.570;8.532;2023-04-25T11:31:38;11.20;99.90
23081;DHT22;11708;50.570;8.532;2023-04-25T11:34:04;11.20;99.90
23081;DHT22;11708;50.570;8.532;2023-04-25T11:36:30;11.10;99.90
23081;DHT22;11708;50.570;8.532;2023-04-25T11:38:56;11.10;99.90
23081;DHT22;11708;50.570;8.532;2023-04-25T11:41:22;11.00;99.90
23081;DHT22;11708;50.570;8.532;2023-04-25T11:43:50;11.10;99.90
23081;DHT22;11708;50.570;8.532;2023-04-25T11:46:17;11.20;99.90
23081;DHT22;11708;50.570;8.532;2023-04-25T11:48:44;11.50;99.90
23081;DHT22;11708;50.570;8.532;2023-04-25T11:51:11;11.60;99.90
23081;DHT22;11708;50.570;8.532;2023-04-25T11:53:41;11.70;99.90
23081;DHT22;11708;50.570;8.532;2023-04-25T11:56:09;11.80;99.90
23081;DHT22;11708;50.570;8.532;2023-04-25T11:58:54;11.70;99.90
23081;DHT22;11708;50.570;8.532;2023-04-25T12:01:33;11.60;99.90
23081;DHT22;11708;50.570;8.532;2023-04-25T12:04:11;11.50;99.90
23081;DHT22;11708;50.570;8.532;2023-04-25T12:06:37;11.50;99.90
23081;DHT22;11708;50.570;8.532;2023-04-25T12:09:10;11.60;99.90
23081;DHT22;11708;50.570;8.532;2023-04-25T12:14:09;11.40;99.90
23081;DHT22;11708;50.570;8.532;2023-04-25T12:16:47;11.40;99.90
23081;DHT22;11708;50.570;8.532;2023-04-25T12:19:14;11.40;99.90
23081;DHT22;11708;50.570;8.532;2023-04-25T12:21:41;11.50;99.90
23081;DHT22;11708;50.570;8.532;2023-04-25T12:24:17;11.50;99.90
23081;DHT22;11708;50.570;8.532;2023-04-25T12:29:24;11.30;99.90
23081;DHT22;11708;50.570;8.532;2023-04-25T12:31:51;11.40;99.90
23081;DHT22;11708;50.570;8.532;2023-04-25T12:34:18;11.40;99.90
23081;DHT22;11708;50.570;8.532;2023-04-25T12:36:44;11.50;99.90
23081;DHT22;11708;50.570;8.532;2023-04-25T12:39:17;11.70;99.90
23081;DHT22;11708;50.570;8.532;2023-04-25T12:41:44;12.10;99.90
23081;DHT22;11708;50.570;8.532;2023-04-25T12:44:10;12.70;99.90
23081;DHT22;11708;50.570;8.532;2023-04-25T12:46:37;13.40;99.90
23081;DHT22;11708;50.570;8.532;2023-04-25T12:49:03;14.00;99.90
23081;DHT22;11708;50.570;8.532;2023-04-25T12:51:30;14.50;99.90
23081;DHT22;11708;50.570;8.532;2023-04-25T12:53:56;14.60;99.90
23081;DHT22;11708;50.570;8.532;2023-04-25T12:56:21;14.90;99.90
23081;DHT22;11708;50.570;8.532;2023-04-25T12:58:47;15.50;99.90
23081;DHT22;11708;50.570;8.532;2023-04-25T13:01:15;15.70;99.90
23081;DHT22;11708;50.570;8.532;2023-04-25T13:03:40;15.70;97.50
23081;DHT22;11708;50.570;8.532;2023-04-25T13:06:07;15.60;97.90
23081;DHT22;11708;50.570;8.532;2023-04-25T13:08:33;15.80;98.80
23081;DHT22;11708;50.570;8.532;2023-04-25T13:11:00;14.80;97.80
23081;DHT22;11708;50.570;8.532;2023-04-25T13:13:25;14.40;99.10
23081;DHT22;11708;50.570;8.532;2023-04-25T13:15:52;14.10;99.90
23081;DHT22;11708;50.570;8.532;2023-04-25T13:18:18;13.70;99.90
23081;DHT22;11708;50.570;8.532;2023-04-25T13:20:44;13.40;99.90
23081;DHT22;11708;50.570;8.532;2023-04-25T13:23:11;13.20;99.90
23081;DHT22;11708;50.570;8.532;2023-04-25T13:25:37;13.00;99.90
23081;DHT22;11708;50.570;8.532;2023-04-25T13:28:03;12.90;99.90
23081;DHT22;11708;50.570;8.532;2023-04-25T13:30:29;12.70;99.90
23081;DHT22;11708;50.570;8.532;2023-04-25T13:32:55;12.50;99.90
23081;DHT22;11708;50.570;8.532;2023-04-25T13:35:22;12.40;99.90
23081;DHT22;11708;50.570;8.532;2023-04-25T13:37:48;12.30;99.90
23081;DHT22;11708;50.570;8.532;2023-04-25T13:40:13;12.10;99.90
23081;DHT22;11708;50.570;8.532;2023-04-25T13:42:39;12.00;99.90
23081;DHT22;11708;50.570;8.532;2023-04-25T13:45:07;12.30;99.90
23081;DHT22;11708;50.570;8.532;2023-04-25T13:47:33;12.10;99.90
23081;DHT22;11708;50.570;8.532;2023-04-25T13:49:58;12.20;99.90
23081;DHT22;11708;50.570;8.532;2023-04-25T13:52:24;12.40;99.90
23081;DHT22;11708;50.570;8.532;2023-04-25T13:54:51;12.50;99.90
23081;DHT22;11708;50.570;8.532;2023-04-25T13:57:17;12.60;99.90
23081;DHT22;11708;50.570;8.532;2023-04-25T13:59:43;12.80;99.90
23081;DHT22;11708;50.570;8.532;2023-04-25T14:02:09;12.80;99.90
23081;DHT22;11708;50.570;8.532;2023-04-25T14:04:34;12.60;99.90
23081;DHT22;11708;50.570;8.532;2023-04-25T14:07:00;12.50;99.90
23081;DHT22;11708;50.570;8.532;2023-04-25T14:09:27;12.30;99.90
23081;DHT22;11708;50.570;8.532;2023-04-25T14:11:53;12.40;99.90
23081;DHT22;11708;50.570;8.532;2023-04-25T14:14:20;12.40;99.90
23081;DHT22;11708;50.570;8.532;2023-04-25T14:16:46;12.60;99.90
23081;DHT22;11708;50.570;8.532;2023-04-25T14:19:16;12.80;99.90
23081;DHT22;11708;50.570;8.532;2023-04-25T14:21:42;12.90;99.90
23081;DHT22;11708;50.570;8.532;2023-04-25T14:24:08;13.00;99.90
23081;DHT22;11708;50.570;8.532;2023-04-25T14:26:34;13.00;99.90
23081;DHT22;11708;50.570;8.532;2023-04-25T14:29:03;12.80;99.90
23081;DHT22;11708;50.570;8.532;2023-04-25T14:31:28;12.60;99.90
23081;DHT22;11708;50.570;8.532;2023-04-25T14:33:54;12.60;99.90
23081;DHT22;11708;50.570;8.532;2023-04-25T14:36:19;12.60;99.90
23081;DHT22;11708;50.570;8.532;2023-04-25T14:38:45;12.70;99.90
23081;DHT22;11708;50.570;8.532;2023-04-25T14:41:11;12.90;99.90
23081;DHT22;11708;50.570;8.532;2023-04-25T14:43:37;13.00;99.90
23081;DHT22;11708;50.570;8.532;2023-04-25T14:46:05;13.00;99.90
23081;DHT22;11708;50.570;8.532;2023-04-25T14:48:31;13.40;99.40
23081;DHT22;11708;50.570;8.532;2023-04-25T14:50:57;13.70;97.70
23081;DHT22;11708;50.570;8.532;2023-04-25T14:53:23;13.60;97.10
23081;DHT22;11708;50.570;8.532;2023-04-25T14:55:49;13.50;97.70
23081;DHT22;11708;50.570;8.532;2023-04-25T14:58:14;13.40;96.00
23081;DHT22;11708;50.570;8.532;2023-04-25T15:00:41;13.30;95.00
23081;DHT22;11708;50.570;8.532;2023-04-25T15:03:06;12.90;94.30
23081;DHT22;11708;50.570;8.532;2023-04-25T15:05:33;12.60;94.40
23081;DHT22;11708;50.570;8.532;2023-04-25T15:07:59;12.40;95.40
23081;DHT22;11708;50.570;8.532;2023-04-25T15:10:25;12.20;97.50
23081;DHT22;11708;50.570;8.532;2023-04-25T15:12:51;12.10;97.90
23081;DHT22;11708;50.570;8.532;2023-04-25T15:15:18;12.10;98.00
23081;DHT22;11708;50.570;8.532;2023-04-25T15:17:44;12.00;98.00
23081;DHT22;11708;50.570;8.532;2023-04-25T15:20:11;11.90;98.20
23081;DHT22;11708;50.570;8.532;2023-04-25T15:22:41;11.80;99.10
23081;DHT22;11708;50.570;8.532;2023-04-25T15:25:08;11.80;99.90
23081;DHT22;11708;50.570;8.532;2023-04-25T15:27:35;11.70;99.90
23081;DHT22;11708;50.570;8.532;2023-04-25T15:30:10;11.80;99.90
23081;DHT22;11708;50.570;8.532;2023-04-25T15:32:36;11.90;99.90
23081;DHT22;11708;50.570;8.532;2023-04-25T15:35:04;12.30;99.90
23081;DHT22;11708;50.570;8.532;2023-04-25T15:37:30;12.50;99.90
23081;DHT22;11708;50.570;8.532;2023-04-25T15:42:37;13.50;94.90
23081;DHT22;11708;50.570;8.532;2023-04-25T15:45:05;13.10;98.80
23081;DHT22;11708;50.570;8.532;2023-04-25T15:47:31;13.30;96.50
23081;DHT22;11708;50.570;8.532;2023-04-25T15:49:57;13.20;96.80
23081;DHT22;11708;50.570;8.532;2023-04-25T15:52:23;13.30;97.90